Dalzell, Illinois
Current Conditions -  °F | °C
As of 7:55 PM on Thursday 18 Dec 2014 (Local Time) from KVYS Reporting Station
Overcast Overcast  
Wind Chill: 26°   Ceiling: 1800
Heat Index: 26°   Visibility: 10mi
Dew Point: 19°   Wind: 3mph
Humidity: 76%   Direction: 350°N
Pressure: 30.29"   Gusts: NA
Location:  41.36°N, 89.18°W
Report Text: KVYS 190155Z AUTO 35003KT 10SM OVC018 M03/M07 A3029 RMK AO2 T10331070
Loading
Personal Weather Stations






























Interactive Weather Map New forecast layout! Learn more

10-Day Weather Forecast

Advertisements
Track Severe Weather on mobile